nws-alerts: Checking more than four warning/county codes can delay the loading of your pages. You should use a cron job to get the data.
EllijayWeather Station Historical Data
Daily Summary for January 1, 2019 Units:  English    Metric   Both
Daily Weekly Monthly Yearly Custom
  High: Low: Average:
Temperature: 61.2 °F 45.7 °F 55 °F
Dew Point: 60.6 °F 45.1 °F 53.9 °F
Humidity: 99% 87% 96%
Wind Speed: 0.9mph 0.0mph 0mph
Wind Gust: 2.0mph - -
Wind- - NNW
Pressure: 30.20 in 30.04 in -
Precipitation: 0.04 in    
Historical Graphs
 
 
Tabular Data for January 1, 2019
Time Temperature Dew Point Pressure Wind Wind Speed Wind Gust Humidity Rainfall Rate (Hourly) solar
00:04 61.2 °F 60.6 °F 30.05 in Calm     98% 0.01 in meteobridge W/m2
00:09 61.2 °F 60.6 °F 30.05 in Calm     98% 0.01 in meteobridge W/m2
00:14 61.2 °F 60.6 °F 30.04 in Calm     98% 0.01 in meteobridge W/m2
00:19 61.0 °F 60.4 °F 30.04 in Calm     98% 0.01 in meteobridge W/m2
00:24 61.0 °F 60.4 °F 30.04 in Calm     98% 0.01 in meteobridge W/m2
00:29 60.8 °F 60.3 °F 30.05 in Calm     98% 0.01 in meteobridge W/m2
00:34 60.8 °F 60.3 °F 30.05 in Calm     98% 0.01 in meteobridge W/m2
00:39 60.6 °F 60.1 °F 30.04 in Calm     98% 0.02 in meteobridge W/m2
00:44 60.6 °F 60.1 °F 30.06 in Calm     98% 0.02 in meteobridge W/m2
00:49 60.6 °F 60.1 °F 30.05 in Calm     98% 0.02 in meteobridge W/m2
00:54 60.6 °F 60.1 °F 30.05 in Calm     98% 0.02 in meteobridge W/m2
00:59 60.4 °F 59.9 °F 30.04 in Calm     98% 0.01 in meteobridge W/m2
01:04 60.4 °F 59.9 °F 30.05 in Calm     98% 0.01 in meteobridge W/m2
01:09 60.4 °F 59.9 °F 30.05 in Calm     98% 0.01 in meteobridge W/m2
01:14 60.3 °F 59.7 °F 30.05 in Calm     98% 0.01 in meteobridge W/m2
01:18 60.3 °F 59.7 °F 30.05 in Calm     98% 0.01 in meteobridge W/m2
01:24 60.3 °F 59.9 °F 30.05 in Calm     99% 0.01 in meteobridge W/m2
01:29 60.1 °F 59.5 °F 30.05 in Calm     98% 0.01 in meteobridge W/m2
01:34 60.1 °F 59.5 °F 30.05 in Calm     98% 0.01 in meteobridge W/m2
01:39 59.9 °F 59.4 °F 30.06 in Calm     98% 0.00 in meteobridge W/m2
01:44 59.7 °F 59.2 °F 30.05 in Calm     98% 0.00 in meteobridge W/m2
01:49 59.5 °F 59.0 °F 30.05 in Calm     98% 0.00 in meteobridge W/m2
01:54 59.5 °F 59.0 °F 30.06 in Calm     98% 0.00 in meteobridge W/m2
01:59 59.4 °F 58.8 °F 30.05 in Calm     98% 0.00 in meteobridge W/m2
02:04 59.4 °F 58.8 °F 30.06 in Calm     98% 0.00 in meteobridge W/m2
02:09 59.2 °F 58.6 °F 30.06 in Calm     98% 0.00 in meteobridge W/m2
02:14 59.0 °F 58.5 °F 30.06 in Calm     98% 0.00 in meteobridge W/m2
02:19 58.8 °F 58.3 °F 30.06 in Calm     98% 0.00 in meteobridge W/m2
02:23 58.8 °F 58.3 °F 30.06 in Calm     98% 0.00 in meteobridge W/m2
02:29 58.8 °F 58.3 °F 30.06 in Calm     98% 0.00 in meteobridge W/m2
02:34 58.6 °F 58.1 °F 30.06 in Calm     98% 0.00 in meteobridge W/m2
02:39 58.6 °F 58.1 °F 30.06 in Calm     98% 0.00 in meteobridge W/m2
02:44 58.6 °F 58.1 °F 30.06 in Calm     98% 0.00 in meteobridge W/m2
02:49 58.5 °F 57.9 °F 30.06 in Calm     98% 0.00 in meteobridge W/m2
02:54 58.5 °F 57.9 °F 30.06 in Calm     98% 0.00 in meteobridge W/m2
02:59 58.5 °F 58.1 °F 30.06 in Calm     99% 0.00 in meteobridge W/m2
03:04 58.3 °F 57.9 °F 30.07 in Calm     99% 0.00 in meteobridge W/m2
03:09 58.3 °F 57.7 °F 30.07 in Calm     98% 0.00 in meteobridge W/m2
03:14 57.9 °F 57.4 °F 30.07 in Calm     98% 0.00 in meteobridge W/m2
03:19 57.9 °F 57.4 °F 30.07 in Calm     98% 0.00 in meteobridge W/m2
03:24 57.9 °F 57.6 °F 30.06 in Calm     99% 0.00 in meteobridge W/m2
03:29 57.9 °F 57.6 °F 30.06 in Calm     99% 0.00 in meteobridge W/m2
03:34 57.9 °F 57.6 °F 30.07 in Calm     99% 0.00 in meteobridge W/m2
03:39 57.7 °F 57.4 °F 30.07 in Calm     99% 0.00 in meteobridge W/m2
03:44 57.7 °F 57.4 °F 30.07 in Calm     99% 0.00 in meteobridge W/m2
03:49 57.7 °F 57.4 °F 30.07 in Calm     99% 0.00 in meteobridge W/m2
03:54 57.7 °F 57.4 °F 30.06 in Calm     99% 0.00 in meteobridge W/m2
03:59 57.6 °F 57.2 °F 30.06 in Calm     99% 0.00 in meteobridge W/m2
04:04 57.7 °F 57.4 °F 30.06 in Calm     99% 0.00 in meteobridge W/m2
04:09 57.7 °F 57.4 °F 30.06 in Calm     99% 0.00 in meteobridge W/m2
04:14 57.7 °F 57.4 °F 30.07 in Calm     99% 0.00 in meteobridge W/m2
04:19 57.7 °F 57.4 °F 30.07 in Calm     99% 0.00 in meteobridge W/m2
04:24 57.7 °F 57.4 °F 30.06 in Calm     99% 0.00 in meteobridge W/m2
04:29 57.7 °F 57.4 °F 30.06 in Calm     99% 0.00 in meteobridge W/m2
04:34 57.7 °F 57.4 °F 30.06 in Calm     99% 0.00 in meteobridge W/m2
04:39 57.7 °F 57.4 °F 30.06 in Calm     99% 0.00 in meteobridge W/m2
04:44 57.7 °F 57.4 °F 30.06 in Calm     99% 0.00 in meteobridge W/m2
04:49 57.7 °F 57.4 °F 30.06 in Calm     99% 0.00 in meteobridge W/m2
04:54 57.6 °F 57.2 °F 30.07 in Calm     99% 0.00 in meteobridge W/m2
04:59 57.6 °F 57.2 °F 30.07 in Calm     99% 0.00 in meteobridge W/m2
05:04 57.6 °F 57.2 °F 30.06 in Calm     99% 0.00 in meteobridge W/m2
05:09 57.6 °F 57.2 °F 30.07 in Calm     99% 0.00 in meteobridge W/m2
05:14 57.6 °F 57.2 °F 30.07 in Calm     99% 0.00 in meteobridge W/m2
05:19 57.6 °F 57.2 °F 30.08 in Calm     99% 0.00 in meteobridge W/m2
05:24 57.4 °F 57.0 °F 30.08 in Calm     99% 0.00 in meteobridge W/m2
05:29 57.4 °F 57.0 °F 30.09 in Calm     99% 0.00 in meteobridge W/m2
05:34 57.2 °F 56.8 °F 30.10 in Calm     99% 0.00 in meteobridge W/m2
05:39 57.4 °F 57.0 °F 30.08 in Calm     99% 0.00 in meteobridge W/m2
05:44 57.4 °F 57.0 °F 30.08 in Calm     99% 0.00 in meteobridge W/m2
05:49 57.4 °F 57.0 °F 30.07 in Calm     99% 0.00 in meteobridge W/m2
05:54 57.2 °F 56.8 °F 30.08 in Calm     99% 0.00 in meteobridge W/m2
05:59 57.0 °F 56.7 °F 30.09 in Calm     99% 0.01 in meteobridge W/m2
06:04 57.0 °F 56.7 °F 30.09 in Calm     99% 0.01 in meteobridge W/m2
06:09 57.0 °F 56.7 °F 30.09 in Calm     99% 0.01 in meteobridge W/m2
06:14 56.8 °F 56.5 °F 30.09 in Calm     99% 0.01 in meteobridge W/m2
06:19 56.8 °F 56.5 °F 30.09 in Calm     99% 0.01 in meteobridge W/m2
06:24 56.8 °F 56.5 °F 30.09 in Calm   2.0 mph 99% 0.02 in meteobridge W/m2
06:29 56.8 °F 56.5 °F 30.09 in Calm     99% 0.02 in meteobridge W/m2
06:34 56.7 °F 56.3 °F 30.09 in Calm   1.0 mph 99% 0.02 in meteobridge W/m2
06:39 56.3 °F 55.4 °F 30.10 in Calm     97% 0.02 in meteobridge W/m2
06:44 55.9 °F 54.9 °F 30.09 in Calm     96% 0.02 in meteobridge W/m2
06:49 55.8 °F 54.9 °F 30.09 in Calm     97% 0.02 in meteobridge W/m2
06:54 55.4 °F 54.5 °F 30.09 in Calm     97% 0.02 in meteobridge W/m2
06:59 55.2 °F 54.3 °F 30.09 in Calm     97% 0.01 in meteobridge W/m2
07:04 55.0 °F 54.5 °F 30.09 in Calm     98% 0.01 in meteobridge W/m2
07:09 54.9 °F 54.3 °F 30.10 in Calm     98% 0.01 in meteobridge W/m2
07:14 54.9 °F 54.3 °F 30.11 in NNW 0.9 mph 1.0 mph 98% 0.01 in meteobridge W/m2
07:19 54.9 °F 54.3 °F 30.11 in Calm     98% 0.01 in meteobridge W/m2
07:24 54.7 °F 54.1 °F 30.11 in Calm     98% 0.00 in meteobridge W/m2
07:29 54.3 °F 53.8 °F 30.11 in Calm     98% 0.00 in meteobridge W/m2
07:34 54.3 °F 53.8 °F 30.11 in Calm     98% 0.00 in meteobridge W/m2
07:39 54.1 °F 53.6 °F 30.11 in Calm     98% 0.00 in meteobridge W/m2
07:44 54.0 °F 53.4 °F 30.12 in Calm     98% 0.00 in meteobridge W/m2
07:49 53.8 °F 53.2 °F 30.12 in Calm     98% 0.00 in meteobridge W/m2
07:54 53.8 °F 53.2 °F 30.12 in Calm     98% 0.00 in meteobridge W/m2
07:59 53.6 °F 53.1 °F 30.13 in Calm     98% 0.00 in meteobridge W/m2
08:04 53.6 °F 53.1 °F 30.13 in Calm     98% 0.00 in meteobridge W/m2
08:09 53.6 °F 53.1 °F 30.13 in Calm     98% 0.00 in meteobridge W/m2
08:14 53.4 °F 53.1 °F 30.12 in Calm     99% 0.00 in meteobridge W/m2
08:19 53.4 °F 53.1 °F 30.13 in Calm     99% 0.00 in meteobridge W/m2
08:24 53.4 °F 53.1 °F 30.13 in Calm     99% 0.00 in meteobridge W/m2
08:29 53.4 °F 52.9 °F 30.14 in Calm     98% 0.00 in meteobridge W/m2
08:34 53.2 °F 52.7 °F 30.14 in Calm     98% 0.00 in meteobridge W/m2
08:39 53.4 °F 53.1 °F 30.14 in Calm     99% 0.00 in meteobridge W/m2
08:44 53.4 °F 53.1 °F 30.13 in Calm     99% 0.00 in meteobridge W/m2
08:49 53.4 °F 53.1 °F 30.15 in Calm     99% 0.00 in meteobridge W/m2
08:54 53.4 °F 53.1 °F 30.16 in Calm     99% 0.00 in meteobridge W/m2
08:59 53.6 °F 53.2 °F 30.16 in Calm     99% 0.00 in meteobridge W/m2
09:04 53.6 °F 53.2 °F 30.15 in Calm     99% 0.00 in meteobridge W/m2
09:09 53.6 °F 53.2 °F 30.16 in Calm     99% 0.00 in meteobridge W/m2
09:14 53.6 °F 53.2 °F 30.16 in Calm     99% 0.00 in meteobridge W/m2
09:19 53.8 °F 53.4 °F 30.16 in Calm     99% 0.00 in meteobridge W/m2
09:24 53.8 °F 53.4 °F 30.15 in Calm     99% 0.00 in meteobridge W/m2
09:29 53.8 °F 53.4 °F 30.15 in Calm     99% 0.00 in meteobridge W/m2
09:34 53.8 °F 53.4 °F 30.16 in Calm     99% 0.00 in meteobridge W/m2
09:39 53.8 °F 53.4 °F 30.16 in Calm     99% 0.00 in meteobridge W/m2
09:44 54.0 °F 53.6 °F 30.16 in Calm     99% 0.00 in meteobridge W/m2
09:49 53.8 °F 53.4 °F 30.16 in Calm     99% 0.00 in meteobridge W/m2
09:54 54.0 °F 53.6 °F 30.16 in Calm     99% 0.00 in meteobridge W/m2
09:59 54.0 °F 53.6 °F 30.17 in Calm     99% 0.00 in meteobridge W/m2
10:04 54.0 °F 53.6 °F 30.17 in Calm     99% 0.00 in meteobridge W/m2
10:09 54.1 °F 53.8 °F 30.17 in Calm     99% 0.00 in meteobridge W/m2
10:14 54.1 °F 53.8 °F 30.17 in Calm     99% 0.00 in meteobridge W/m2
10:19 54.3 °F 54.0 °F 30.17 in Calm     99% 0.00 in meteobridge W/m2
10:24 54.5 °F 54.1 °F 30.17 in Calm     99% 0.00 in meteobridge W/m2
10:29 54.7 °F 54.3 °F 30.17 in Calm     99% 0.00 in meteobridge W/m2
10:34 54.7 °F 54.3 °F 30.18 in Calm     99% 0.00 in meteobridge W/m2
10:39 54.9 °F 54.5 °F 30.17 in Calm     99% 0.00 in meteobridge W/m2
10:44 54.9 °F 54.5 °F 30.17 in Calm     99% 0.00 in meteobridge W/m2
10:49 54.9 °F 54.5 °F 30.17 in Calm     99% 0.00 in meteobridge W/m2
10:54 55.0 °F 54.7 °F 30.17 in Calm     99% 0.00 in meteobridge W/m2
10:59 55.0 °F 54.7 °F 30.17 in Calm     99% 0.00 in meteobridge W/m2
11:04 55.2 °F 54.9 °F 30.16 in Calm     99% 0.00 in meteobridge W/m2
11:09 55.2 °F 54.9 °F 30.16 in Calm     99% 0.00 in meteobridge W/m2
11:14 55.2 °F 54.7 °F 30.16 in Calm     98% 0.00 in meteobridge W/m2
11:19 55.4 °F 54.9 °F 30.17 in Calm     98% 0.00 in meteobridge W/m2
11:24 55.6 °F 55.0 °F 30.16 in Calm     98% 0.00 in meteobridge W/m2
11:29 55.8 °F 55.2 °F 30.16 in Calm     98% 0.00 in meteobridge W/m2
11:34 55.8 °F 55.2 °F 30.16 in Calm     98% 0.00 in meteobridge W/m2
11:39 55.9 °F 55.0 °F 30.16 in Calm     97% 0.00 in meteobridge W/m2
11:44 55.9 °F 54.9 °F 30.16 in Calm     96% 0.00 in meteobridge W/m2
11:49 55.9 °F 53.6 °F 30.16 in Calm     92% 0.00 in meteobridge W/m2
11:54 56.1 °F 54.1 °F 30.16 in Calm     93% 0.00 in meteobridge W/m2
11:59 56.5 °F 54.9 °F 30.16 in Calm     94% 0.00 in meteobridge W/m2
12:04 56.8 °F 55.2 °F 30.15 in Calm     94% 0.00 in meteobridge W/m2
12:09 56.8 °F 55.2 °F 30.15 in Calm     94% 0.00 in meteobridge W/m2
12:14 57.0 °F 54.5 °F 30.15 in Calm     91% 0.00 in meteobridge W/m2
12:19 57.0 °F 54.1 °F 30.15 in Calm     90% 0.00 in meteobridge W/m2
12:24 57.2 °F 54.9 °F 30.15 in Calm     92% 0.00 in meteobridge W/m2
12:29 57.4 °F 54.5 °F 30.14 in Calm     90% 0.00 in meteobridge W/m2
12:34 57.6 °F 55.0 °F 30.14 in Calm     91% 0.00 in meteobridge W/m2
12:39 57.6 °F 55.2 °F 30.14 in Calm     92% 0.00 in meteobridge W/m2
12:44 57.6 °F 55.0 °F 30.14 in Calm     91% 0.00 in meteobridge W/m2
12:49 57.6 °F 54.7 °F 30.14 in Calm     90% 0.00 in meteobridge W/m2
12:54 57.6 °F 54.7 °F 30.14 in Calm     90% 0.00 in meteobridge W/m2
12:59 57.7 °F 55.2 °F 30.14 in Calm     91% 0.00 in meteobridge W/m2
13:04 57.6 °F 54.7 °F 30.14 in Calm     90% 0.00 in meteobridge W/m2
13:09 57.7 °F 54.9 °F 30.14 in Calm     90% 0.00 in meteobridge W/m2
13:14 57.9 °F 55.2 °F 30.13 in Calm     91% 0.00 in meteobridge W/m2
13:19 58.1 °F 54.3 °F 30.13 in Calm     87% 0.00 in meteobridge W/m2
13:24 58.3 °F 55.6 °F 30.14 in Calm     91% 0.00 in meteobridge W/m2
13:29 58.5 °F 55.2 °F 30.14 in Calm     89% 0.00 in meteobridge W/m2
13:34 58.5 °F 56.1 °F 30.14 in Calm     92% 0.00 in meteobridge W/m2
13:39 58.5 °F 55.8 °F 30.14 in Calm   2.0 mph 91% 0.00 in meteobridge W/m2
13:44 58.5 °F 55.6 °F 30.14 in Calm   2.0 mph 90% 0.00 in meteobridge W/m2
13:49 58.5 °F 55.6 °F 30.14 in Calm     90% 0.00 in meteobridge W/m2
13:54 58.3 °F 55.6 °F 30.14 in Calm     91% 0.00 in meteobridge W/m2
13:59 58.3 °F 55.4 °F 30.14 in Calm     90% 0.00 in meteobridge W/m2
14:04 58.3 °F 55.4 °F 30.14 in Calm     90% 0.00 in meteobridge W/m2
14:09 58.1 °F 55.2 °F 30.14 in Calm     90% 0.00 in meteobridge W/m2
14:14 57.9 °F 54.7 °F 30.13 in Calm     89% 0.00 in meteobridge W/m2
14:19 57.9 °F 55.0 °F 30.14 in Calm     90% 0.00 in meteobridge W/m2
14:24 57.9 °F 55.2 °F 30.13 in Calm     91% 0.00 in meteobridge W/m2
14:29 57.9 °F 55.2 °F 30.13 in Calm     91% 0.00 in meteobridge W/m2
14:34 57.9 °F 55.6 °F 30.13 in Calm     92% 0.00 in meteobridge W/m2
14:39 57.9 °F 55.0 °F 30.13 in Calm     90% 0.00 in meteobridge W/m2
14:44 58.1 °F 55.4 °F 30.13 in Calm     91% 0.00 in meteobridge W/m2
14:49 58.1 °F 55.2 °F 30.14 in Calm     90% 0.00 in meteobridge W/m2
14:54 58.1 °F 54.9 °F 30.14 in Calm     89% 0.00 in meteobridge W/m2
14:59 58.1 °F 55.8 °F 30.13 in Calm     92% 0.00 in meteobridge W/m2
15:04 58.1 °F 54.5 °F 30.13 in Calm     88% 0.00 in meteobridge W/m2
15:09 58.1 °F 54.9 °F 30.13 in Calm     89% 0.00 in meteobridge W/m2
15:14 58.1 °F 55.2 °F 30.13 in Calm     90% 0.00 in meteobridge W/m2
15:19 57.9 °F 55.0 °F 30.13 in Calm     90% 0.00 in meteobridge W/m2
15:24 57.9 °F 54.1 °F 30.13 in Calm     87% 0.00 in meteobridge W/m2
15:29 57.9 °F 54.1 °F 30.14 in Calm     87% 0.00 in meteobridge W/m2
15:34 57.9 °F 54.1 °F 30.14 in Calm     87% 0.00 in meteobridge W/m2
15:39 57.9 °F 54.1 °F 30.14 in Calm     87% 0.00 in meteobridge W/m2
15:44 57.9 °F 54.1 °F 30.14 in Calm     87% 0.00 in meteobridge W/m2
15:49 57.9 °F 54.3 °F 30.14 in Calm     88% 0.00 in meteobridge W/m2
15:54 57.9 °F 54.3 °F 30.14 in Calm     88% 0.00 in meteobridge W/m2
15:59 57.9 °F 54.7 °F 30.14 in Calm     89% 0.00 in meteobridge W/m2
16:04 57.9 °F 54.7 °F 30.14 in Calm     89% 0.00 in meteobridge W/m2
16:09 57.9 °F 54.1 °F 30.14 in Calm     87% 0.00 in meteobridge W/m2
16:14 57.9 °F 55.2 °F 30.14 in Calm     91% 0.00 in meteobridge W/m2
16:19 57.9 °F 55.6 °F 30.14 in Calm     92% 0.00 in meteobridge W/m2
16:24 57.7 °F 55.4 °F 30.15 in Calm     92% 0.00 in meteobridge W/m2
16:29 57.6 °F 54.3 °F 30.15 in Calm     89% 0.00 in meteobridge W/m2
16:34 57.4 °F 54.1 °F 30.15 in Calm     89% 0.00 in meteobridge W/m2
16:39 57.4 °F 54.1 °F 30.15 in Calm     89% 0.00 in meteobridge W/m2
16:44 57.0 °F 54.1 °F 30.15 in Calm     90% 0.00 in meteobridge W/m2
16:49 56.8 °F 54.0 °F 30.15 in Calm     90% 0.00 in meteobridge W/m2
16:54 56.8 °F 54.0 °F 30.15 in Calm     90% 0.00 in meteobridge W/m2
16:59 56.7 °F 54.1 °F 30.15 in Calm     91% 0.00 in meteobridge W/m2
17:04 56.5 °F 54.1 °F 30.15 in Calm     92% 0.00 in meteobridge W/m2
17:09 56.1 °F 54.1 °F 30.15 in Calm     93% 0.00 in meteobridge W/m2
17:14 55.9 °F 54.0 °F 30.16 in Calm     93% 0.00 in meteobridge W/m2
17:19 55.8 °F 54.1 °F 30.16 in Calm     94% 0.00 in meteobridge W/m2
17:24 55.8 °F 54.1 °F 30.16 in Calm     94% 0.00 in meteobridge W/m2
17:29 55.6 °F 54.0 °F 30.16 in Calm     94% 0.00 in meteobridge W/m2
17:34 55.2 °F 53.6 °F 30.16 in Calm     94% 0.00 in meteobridge W/m2
17:39 54.9 °F 53.2 °F 30.16 in Calm     94% 0.00 in meteobridge W/m2
17:44 54.7 °F 53.1 °F 30.16 in Calm     94% 0.00 in meteobridge W/m2
17:49 54.5 °F 52.9 °F 30.16 in Calm     94% 0.00 in meteobridge W/m2
17:54 54.3 °F 52.9 °F 30.17 in Calm     95% 0.00 in meteobridge W/m2
17:59 54.1 °F 52.7 °F 30.17 in Calm     95% 0.01 in meteobridge W/m2
18:04 54.0 °F 52.5 °F 30.16 in Calm     95% 0.01 in meteobridge W/m2
18:09 53.8 °F 52.3 °F 30.17 in Calm     95% 0.01 in meteobridge W/m2
18:14 53.6 °F 52.2 °F 30.17 in Calm     95% 0.01 in meteobridge W/m2
18:19 53.4 °F 52.3 °F 30.17 in Calm     96% 0.01 in meteobridge W/m2
18:24 53.2 °F 52.2 °F 30.17 in Calm     96% 0.01 in meteobridge W/m2
18:29 53.2 °F 52.2 °F 30.17 in Calm     96% 0.01 in meteobridge W/m2
18:34 53.1 °F 52.0 °F 30.18 in Calm     96% 0.01 in meteobridge W/m2
18:39 52.9 °F 51.8 °F 30.17 in Calm     96% 0.01 in meteobridge W/m2
18:44 52.7 °F 51.6 °F 30.19 in Calm     96% 0.01 in meteobridge W/m2
18:49 52.5 °F 51.4 °F 30.18 in Calm     96% 0.01 in meteobridge W/m2
18:54 52.3 °F 51.3 °F 30.19 in Calm     96% 0.01 in meteobridge W/m2
18:59 52.3 °F 51.4 °F 30.19 in Calm     97% 0.00 in meteobridge W/m2
19:04 52.2 °F 51.3 °F 30.19 in Calm     97% 0.00 in meteobridge W/m2
19:09 52.2 °F 51.1 °F 30.19 in Calm     96% 0.00 in meteobridge W/m2
19:14 52.0 °F 50.9 °F 30.19 in Calm     96% 0.00 in meteobridge W/m2
19:19 51.8 °F 50.7 °F 30.19 in Calm     96% 0.00 in meteobridge W/m2
19:24 51.6 °F 50.7 °F 30.19 in Calm     97% 0.00 in meteobridge W/m2
19:29 51.4 °F 50.5 °F 30.19 in Calm     97% 0.00 in meteobridge W/m2
19:34 51.3 °F 50.4 °F 30.19 in Calm     97% 0.00 in meteobridge W/m2
19:39 51.1 °F 50.2 °F 30.19 in Calm     97% 0.00 in meteobridge W/m2
19:44 51.1 °F 50.2 °F 30.20 in Calm     97% 0.00 in meteobridge W/m2
19:49 50.7 °F 49.8 °F 30.20 in Calm     97% 0.00 in meteobridge W/m2
19:53 50.5 °F 49.6 °F 30.20 in Calm     97% 0.00 in meteobridge W/m2
19:59 50.5 °F 49.6 °F 30.20 in Calm     97% 0.00 in meteobridge W/m2
20:04 50.4 °F 49.5 °F 30.20 in Calm     97% 0.00 in meteobridge W/m2
20:09 50.2 °F 49.3 °F 30.19 in Calm     97% 0.00 in meteobridge W/m2
20:14 50.0 °F 49.1 °F 30.19 in Calm     97% 0.00 in meteobridge W/m2
20:19 49.8 °F 48.9 °F 30.20 in Calm     97% 0.00 in meteobridge W/m2
20:24 49.6 °F 48.7 °F 30.20 in Calm     97% 0.00 in meteobridge W/m2
20:29 49.5 °F 48.6 °F 30.20 in Calm     97% 0.00 in meteobridge W/m2
20:34 49.3 °F 48.4 °F 30.19 in Calm     97% 0.00 in meteobridge W/m2
20:39 49.3 °F 48.4 °F 30.19 in Calm     97% 0.00 in meteobridge W/m2
20:44 49.1 °F 48.2 °F 30.19 in Calm     97% 0.00 in meteobridge W/m2
20:49 48.9 °F 48.0 °F 30.19 in Calm     97% 0.00 in meteobridge W/m2
20:54 48.7 °F 47.8 °F 30.19 in Calm     97% 0.00 in meteobridge W/m2
20:59 48.7 °F 47.8 °F 30.19 in Calm     97% 0.00 in meteobridge W/m2
21:04 48.6 °F 47.7 °F 30.19 in Calm     97% 0.00 in meteobridge W/m2
21:09 48.4 °F 47.5 °F 30.19 in Calm     97% 0.00 in meteobridge W/m2
21:14 48.0 °F 47.1 °F 30.19 in Calm     97% 0.00 in meteobridge W/m2
21:19 48.0 °F 47.1 °F 30.19 in Calm     97% 0.00 in meteobridge W/m2
21:24 47.8 °F 47.3 °F 30.19 in Calm     98% 0.00 in meteobridge W/m2
21:29 47.8 °F 47.3 °F 30.19 in Calm     98% 0.00 in meteobridge W/m2
21:34 47.8 °F 47.3 °F 30.19 in Calm     98% 0.00 in meteobridge W/m2
21:39 47.7 °F 47.1 °F 30.19 in Calm     98% 0.00 in meteobridge W/m2
21:44 47.7 °F 47.1 °F 30.18 in Calm     98% 0.00 in meteobridge W/m2
21:49 47.7 °F 47.1 °F 30.19 in Calm     98% 0.00 in meteobridge W/m2
21:54 47.7 °F 47.1 °F 30.19 in Calm     98% 0.00 in meteobridge W/m2
21:59 47.7 °F 47.1 °F 30.19 in Calm     98% 0.00 in meteobridge W/m2
22:04 47.5 °F 46.9 °F 30.18 in Calm     98% 0.00 in meteobridge W/m2
22:09 47.5 °F 46.9 °F 30.18 in Calm     98% 0.00 in meteobridge W/m2
22:14 47.5 °F 46.9 °F 30.18 in Calm     98% 0.00 in meteobridge W/m2
22:19 47.3 °F 46.8 °F 30.18 in Calm     98% 0.00 in meteobridge W/m2
22:24 47.1 °F 46.6 °F 30.19 in Calm     98% 0.00 in meteobridge W/m2
22:29 46.9 °F 46.4 °F 30.19 in Calm     98% 0.00 in meteobridge W/m2
22:34 46.8 °F 46.2 °F 30.19 in Calm     98% 0.00 in meteobridge W/m2
22:39 46.6 °F 46.0 °F 30.19 in Calm     98% 0.00 in meteobridge W/m2
22:44 46.4 °F 45.9 °F 30.19 in Calm     98% 0.00 in meteobridge W/m2
22:49 46.4 °F 45.9 °F 30.19 in Calm     98% 0.00 in meteobridge W/m2
22:54 46.2 °F 45.7 °F 30.19 in Calm     98% 0.00 in meteobridge W/m2
22:59 46.2 °F 45.7 °F 30.19 in Calm     98% 0.00 in meteobridge W/m2
23:04 46.2 °F 45.7 °F 30.18 in Calm     98% 0.00 in meteobridge W/m2
23:09 46.0 °F 45.5 °F 30.19 in Calm     98% 0.00 in meteobridge W/m2
23:14 46.0 °F 45.5 °F 30.18 in Calm     98% 0.00 in meteobridge W/m2
23:19 46.0 °F 45.5 °F 30.19 in Calm     98% 0.00 in meteobridge W/m2
23:24 46.0 °F 45.5 °F 30.19 in Calm     98% 0.00 in meteobridge W/m2
23:29 45.9 °F 45.3 °F 30.20 in Calm     98% 0.00 in meteobridge W/m2
23:34 45.9 °F 45.3 °F 30.20 in Calm     98% 0.00 in meteobridge W/m2
23:39 45.9 °F 45.3 °F 30.20 in Calm     98% 0.00 in meteobridge W/m2
23:44 45.7 °F 45.1 °F 30.19 in Calm     98% 0.00 in meteobridge W/m2
23:49 45.7 °F 45.1 °F 30.19 in Calm     98% 0.00 in meteobridge W/m2
23:54 45.7 °F 45.5 °F 30.19 in Calm     99% 0.00 in meteobridge W/m2
23:59 45.7 °F 45.1 °F 30.19 in Calm     98% 0.00 in meteobridge W/m2
EllijayWeather
Compliments of Weather Underground - 2.5 mb